sensor_id;sensor_type;location;lat;lon;timestamp;P1;durP1;ratioP1;P2;durP2;ratioP2
67500;SDS011;54349;52.528;19.760;2022-11-24T00:01:29;10.40;;;7.00;;
67500;SDS011;54349;52.528;19.760;2022-11-24T00:04:03;11.00;;;7.00;;
67500;SDS011;54349;52.528;19.760;2022-11-24T00:06:34;10.10;;;6.70;;
67500;SDS011;54349;52.528;19.760;2022-11-24T00:09:03;11.40;;;7.10;;
67500;SDS011;54349;52.528;19.760;2022-11-24T00:11:34;10.10;;;7.00;;
67500;SDS011;54349;52.528;19.760;2022-11-24T00:14:04;10.20;;;6.70;;
67500;SDS011;54349;52.528;19.760;2022-11-24T00:16:35;11.20;;;7.20;;
67500;SDS011;54349;52.528;19.760;2022-11-24T00:19:07;10.50;;;6.70;;
67500;SDS011;54349;52.528;19.760;2022-11-24T00:21:37;11.00;;;6.70;;
67500;SDS011;54349;52.528;19.760;2022-11-24T00:24:05;12.10;;;7.50;;
67500;SDS011;54349;52.528;19.760;2022-11-24T00:26:35;10.80;;;7.10;;
67500;SDS011;54349;52.528;19.760;2022-11-24T00:29:08;11.00;;;7.00;;
67500;SDS011;54349;52.528;19.760;2022-11-24T00:31:40;10.90;;;6.80;;
67500;SDS011;54349;52.528;19.760;2022-11-24T00:34:11;9.70;;;6.50;;
67500;SDS011;54349;52.528;19.760;2022-11-24T00:36:41;11.30;;;7.00;;
67500;SDS011;54349;52.528;19.760;2022-11-24T00:39:12;10.30;;;6.80;;
67500;SDS011;54349;52.528;19.760;2022-11-24T00:41:42;10.40;;;7.00;;
67500;SDS011;54349;52.528;19.760;2022-11-24T00:44:10;10.50;;;6.80;;
67500;SDS011;54349;52.528;19.760;2022-11-24T00:46:39;9.80;;;6.50;;
67500;SDS011;54349;52.528;19.760;2022-11-24T00:49:07;10.70;;;7.00;;
67500;SDS011;54349;52.528;19.760;2022-11-24T00:51:36;11.10;;;6.70;;
67500;SDS011;54349;52.528;19.760;2022-11-24T00:54:05;9.60;;;6.50;;
67500;SDS011;54349;52.528;19.760;2022-11-24T00:56:33;9.90;;;6.50;;
67500;SDS011;54349;52.528;19.760;2022-11-24T00:59:02;10.60;;;7.00;;
67500;SDS011;54349;52.528;19.760;2022-11-24T01:01:31;10.30;;;6.70;;
67500;SDS011;54349;52.528;19.760;2022-11-24T01:04:00;11.30;;;7.30;;
67500;SDS011;54349;52.528;19.760;2022-11-24T01:06:29;9.80;;;6.10;;
67500;SDS011;54349;52.528;19.760;2022-11-24T01:08:59;10.40;;;6.90;;
67500;SDS011;54349;52.528;19.760;2022-11-24T01:11:31;11.40;;;6.80;;
67500;SDS011;54349;52.528;19.760;2022-11-24T01:14:24;10.50;;;6.30;;
67500;SDS011;54349;52.528;19.760;2022-11-24T01:16:53;10.20;;;6.20;;
67500;SDS011;54349;52.528;19.760;2022-11-24T01:19:22;10.80;;;6.70;;
67500;SDS011;54349;52.528;19.760;2022-11-24T01:21:51;10.10;;;6.30;;
67500;SDS011;54349;52.528;19.760;2022-11-24T01:24:20;10.00;;;6.20;;
67500;SDS011;54349;52.528;19.760;2022-11-24T01:26:48;10.20;;;6.80;;
67500;SDS011;54349;52.528;19.760;2022-11-24T01:29:16;11.30;;;6.70;;
67500;SDS011;54349;52.528;19.760;2022-11-24T01:31:44;10.30;;;6.70;;
67500;SDS011;54349;52.528;19.760;2022-11-24T01:34:12;10.60;;;7.10;;
67500;SDS011;54349;52.528;19.760;2022-11-24T01:36:40;11.10;;;6.60;;
67500;SDS011;54349;52.528;19.760;2022-11-24T01:39:09;10.40;;;6.30;;
67500;SDS011;54349;52.528;19.760;2022-11-24T01:41:38;11.20;;;6.90;;
67500;SDS011;54349;52.528;19.760;2022-11-24T01:44:24;10.10;;;6.40;;
67500;SDS011;54349;52.528;19.760;2022-11-24T01:50:03;10.20;;;6.50;;
67500;SDS011;54349;52.528;19.760;2022-11-24T01:52:46;10.30;;;6.50;;
67500;SDS011;54349;52.528;19.760;2022-11-24T01:55:23;10.60;;;6.20;;
67500;SDS011;54349;52.528;19.760;2022-11-24T01:57:59;9.20;;;6.30;;
67500;SDS011;54349;52.528;19.760;2022-11-24T02:00:35;8.90;;;5.90;;
67500;SDS011;54349;52.528;19.760;2022-11-24T02:03:07;9.30;;;6.00;;
67500;SDS011;54349;52.528;19.760;2022-11-24T02:05:48;9.70;;;6.10;;
67500;SDS011;54349;52.528;19.760;2022-11-24T02:11:08;10.20;;;6.00;;
67500;SDS011;54349;52.528;19.760;2022-11-24T02:13:37;9.20;;;6.10;;
67500;SDS011;54349;52.528;19.760;2022-11-24T02:16:09;9.40;;;6.40;;
67500;SDS011;54349;52.528;19.760;2022-11-24T02:18:40;8.60;;;5.60;;
67500;SDS011;54349;52.528;19.760;2022-11-24T02:21:12;10.50;;;6.50;;
67500;SDS011;54349;52.528;19.760;2022-11-24T02:23:44;9.70;;;6.30;;
67500;SDS011;54349;52.528;19.760;2022-11-24T02:26:43;9.40;;;5.80;;
67500;SDS011;54349;52.528;19.760;2022-11-24T02:29:14;9.70;;;6.20;;
67500;SDS011;54349;52.528;19.760;2022-11-24T02:31:59;9.30;;;6.00;;
67500;SDS011;54349;52.528;19.760;2022-11-24T02:34:32;10.20;;;6.30;;
67500;SDS011;54349;52.528;19.760;2022-11-24T02:37:00;8.50;;;5.90;;
67500;SDS011;54349;52.528;19.760;2022-11-24T02:39:28;9.90;;;6.30;;
67500;SDS011;54349;52.528;19.760;2022-11-24T02:42:03;8.00;;;5.20;;
67500;SDS011;54349;52.528;19.760;2022-11-24T02:44:39;9.00;;;5.90;;
67500;SDS011;54349;52.528;19.760;2022-11-24T02:47:12;9.60;;;6.20;;
67500;SDS011;54349;52.528;19.760;2022-11-24T02:49:40;9.20;;;5.70;;
67500;SDS011;54349;52.528;19.760;2022-11-24T02:52:09;10.00;;;6.00;;
67500;SDS011;54349;52.528;19.760;2022-11-24T02:54:38;9.00;;;5.80;;
67500;SDS011;54349;52.528;19.760;2022-11-24T02:57:07;9.40;;;5.60;;
67500;SDS011;54349;52.528;19.760;2022-11-24T02:59:36;9.40;;;5.90;;
67500;SDS011;54349;52.528;19.760;2022-11-24T03:02:05;10.00;;;5.90;;
67500;SDS011;54349;52.528;19.760;2022-11-24T03:04:33;9.10;;;5.70;;
67500;SDS011;54349;52.528;19.760;2022-11-24T03:07:01;8.20;;;5.50;;
67500;SDS011;54349;52.528;19.760;2022-11-24T03:09:30;9.10;;;5.80;;
67500;SDS011;54349;52.528;19.760;2022-11-24T03:11:59;8.80;;;5.40;;
67500;SDS011;54349;52.528;19.760;2022-11-24T03:14:27;8.80;;;5.80;;
67500;SDS011;54349;52.528;19.760;2022-11-24T03:16:55;9.10;;;6.00;;
67500;SDS011;54349;52.528;19.760;2022-11-24T03:19:23;10.00;;;5.80;;
67500;SDS011;54349;52.528;19.760;2022-11-24T03:21:51;9.00;;;5.60;;
67500;SDS011;54349;52.528;19.760;2022-11-24T03:24:19;8.80;;;5.60;;
67500;SDS011;54349;52.528;19.760;2022-11-24T03:26:47;9.20;;;6.00;;
67500;SDS011;54349;52.528;19.760;2022-11-24T03:29:16;8.70;;;5.70;;
67500;SDS011;54349;52.528;19.760;2022-11-24T03:31:44;9.80;;;5.80;;
67500;SDS011;54349;52.528;19.760;2022-11-24T03:34:12;10.50;;;5.90;;
67500;SDS011;54349;52.528;19.760;2022-11-24T03:36:40;10.10;;;5.60;;
67500;SDS011;54349;52.528;19.760;2022-11-24T03:39:08;8.20;;;5.00;;
67500;SDS011;54349;52.528;19.760;2022-11-24T03:41:37;9.60;;;5.90;;
67500;SDS011;54349;52.528;19.760;2022-11-24T03:44:05;10.10;;;5.90;;
67500;SDS011;54349;52.528;19.760;2022-11-24T03:46:33;9.20;;;5.70;;
67500;SDS011;54349;52.528;19.760;2022-11-24T03:49:02;8.70;;;5.70;;
67500;SDS011;54349;52.528;19.760;2022-11-24T03:51:30;8.10;;;5.40;;
67500;SDS011;54349;52.528;19.760;2022-11-24T03:53:58;9.10;;;5.80;;
67500;SDS011;54349;52.528;19.760;2022-11-24T03:56:26;8.90;;;5.30;;
67500;SDS011;54349;52.528;19.760;2022-11-24T03:58:54;7.80;;;5.00;;
67500;SDS011;54349;52.528;19.760;2022-11-24T04:01:23;8.10;;;4.90;;
67500;SDS011;54349;52.528;19.760;2022-11-24T04:03:51;8.40;;;5.40;;
67500;SDS011;54349;52.528;19.760;2022-11-24T04:06:20;9.20;;;5.90;;
67500;SDS011;54349;52.528;19.760;2022-11-24T04:08:48;8.30;;;5.30;;
67500;SDS011;54349;52.528;19.760;2022-11-24T04:11:16;8.20;;;5.20;;
67500;SDS011;54349;52.528;19.760;2022-11-24T04:14:04;8.30;;;5.30;;
67500;SDS011;54349;52.528;19.760;2022-11-24T04:16:40;7.90;;;5.20;;
67500;SDS011;54349;52.528;19.760;2022-11-24T04:19:08;7.70;;;4.70;;
67500;SDS011;54349;52.528;19.760;2022-11-24T04:21:36;8.10;;;5.00;;
67500;SDS011;54349;52.528;19.760;2022-11-24T04:24:05;8.00;;;4.90;;
67500;SDS011;54349;52.528;19.760;2022-11-24T04:26:34;9.10;;;5.50;;
67500;SDS011;54349;52.528;19.760;2022-11-24T04:29:02;8.50;;;5.30;;
67500;SDS011;54349;52.528;19.760;2022-11-24T04:31:30;9.60;;;5.30;;
67500;SDS011;54349;52.528;19.760;2022-11-24T04:33:58;8.00;;;5.10;;
67500;SDS011;54349;52.528;19.760;2022-11-24T04:36:26;8.50;;;5.20;;
67500;SDS011;54349;52.528;19.760;2022-11-24T04:38:55;8.20;;;5.00;;
67500;SDS011;54349;52.528;19.760;2022-11-24T04:41:43;9.50;;;5.40;;
67500;SDS011;54349;52.528;19.760;2022-11-24T04:44:11;9.10;;;5.60;;
67500;SDS011;54349;52.528;19.760;2022-11-24T04:46:39;7.80;;;5.00;;
67500;SDS011;54349;52.528;19.760;2022-11-24T04:49:08;7.90;;;5.20;;
67500;SDS011;54349;52.528;19.760;2022-11-24T04:51:39;7.80;;;4.70;;
67500;SDS011;54349;52.528;19.760;2022-11-24T04:54:10;9.00;;;5.40;;
67500;SDS011;54349;52.528;19.760;2022-11-24T04:56:40;7.60;;;4.90;;
67500;SDS011;54349;52.528;19.760;2022-11-24T04:59:13;8.90;;;5.10;;
67500;SDS011;54349;52.528;19.760;2022-11-24T05:01:42;7.90;;;4.70;;
67500;SDS011;54349;52.528;19.760;2022-11-24T05:04:14;8.20;;;5.50;;
67500;SDS011;54349;52.528;19.760;2022-11-24T05:06:42;8.60;;;5.20;;
67500;SDS011;54349;52.528;19.760;2022-11-24T05:09:13;8.80;;;5.10;;
67500;SDS011;54349;52.528;19.760;2022-11-24T05:11:43;8.30;;;5.40;;
67500;SDS011;54349;52.528;19.760;2022-11-24T05:14:11;10.10;;;5.60;;
67500;SDS011;54349;52.528;19.760;2022-11-24T05:16:39;8.00;;;5.30;;
67500;SDS011;54349;52.528;19.760;2022-11-24T05:19:07;8.40;;;5.10;;
67500;SDS011;54349;52.528;19.760;2022-11-24T05:21:36;8.10;;;5.30;;
67500;SDS011;54349;52.528;19.760;2022-11-24T05:24:04;9.00;;;5.40;;
67500;SDS011;54349;52.528;19.760;2022-11-24T05:26:33;8.80;;;5.50;;
67500;SDS011;54349;52.528;19.760;2022-11-24T05:29:02;9.50;;;5.30;;
67500;SDS011;54349;52.528;19.760;2022-11-24T05:31:30;8.60;;;5.60;;
67500;SDS011;54349;52.528;19.760;2022-11-24T05:33:58;5.90;;;3.30;;
67500;SDS011;54349;52.528;19.760;2022-11-24T05:36:26;8.30;;;5.30;;
67500;SDS011;54349;52.528;19.760;2022-11-24T05:39:20;8.20;;;5.30;;
67500;SDS011;54349;52.528;19.760;2022-11-24T05:41:48;8.20;;;5.00;;
67500;SDS011;54349;52.528;19.760;2022-11-24T05:44:17;8.60;;;5.60;;
67500;SDS011;54349;52.528;19.760;2022-11-24T05:46:45;7.90;;;5.20;;
67500;SDS011;54349;52.528;19.760;2022-11-24T05:49:13;7.90;;;5.10;;
67500;SDS011;54349;52.528;19.760;2022-11-24T05:51:41;8.30;;;4.90;;
67500;SDS011;54349;52.528;19.760;2022-11-24T05:54:09;8.50;;;5.20;;
67500;SDS011;54349;52.528;19.760;2022-11-24T05:56:38;7.80;;;4.80;;
67500;SDS011;54349;52.528;19.760;2022-11-24T05:59:06;8.00;;;5.30;;
67500;SDS011;54349;52.528;19.760;2022-11-24T06:01:37;9.30;;;5.40;;
67500;SDS011;54349;52.528;19.760;2022-11-24T06:04:06;8.90;;;5.60;;
67500;SDS011;54349;52.528;19.760;2022-11-24T06:06:35;7.90;;;5.30;;
67500;SDS011;54349;52.528;19.760;2022-11-24T06:09:03;9.00;;;5.30;;
67500;SDS011;54349;52.528;19.760;2022-11-24T06:11:32;7.80;;;4.90;;
67500;SDS011;54349;52.528;19.760;2022-11-24T06:14:00;9.60;;;5.90;;
67500;SDS011;54349;52.528;19.760;2022-11-24T06:16:33;8.20;;;5.20;;
67500;SDS011;54349;52.528;19.760;2022-11-24T06:19:01;8.90;;;6.00;;
67500;SDS011;54349;52.528;19.760;2022-11-24T06:21:29;8.40;;;5.10;;
67500;SDS011;54349;52.528;19.760;2022-11-24T06:23:58;8.10;;;5.70;;
67500;SDS011;54349;52.528;19.760;2022-11-24T06:26:27;8.70;;;5.60;;
67500;SDS011;54349;52.528;19.760;2022-11-24T06:28:55;9.10;;;5.80;;
67500;SDS011;54349;52.528;19.760;2022-11-24T06:31:23;8.40;;;5.60;;
67500;SDS011;54349;52.528;19.760;2022-11-24T06:33:52;7.90;;;5.30;;
67500;SDS011;54349;52.528;19.760;2022-11-24T06:36:20;8.80;;;5.40;;
67500;SDS011;54349;52.528;19.760;2022-11-24T06:38:49;8.50;;;5.50;;
67500;SDS011;54349;52.528;19.760;2022-11-24T06:41:18;9.30;;;6.00;;
67500;SDS011;54349;52.528;19.760;2022-11-24T06:43:47;8.30;;;5.20;;
67500;SDS011;54349;52.528;19.760;2022-11-24T06:46:15;9.20;;;5.50;;
67500;SDS011;54349;52.528;19.760;2022-11-24T06:48:43;8.50;;;5.20;;
67500;SDS011;54349;52.528;19.760;2022-11-24T06:51:12;9.30;;;5.90;;
67500;SDS011;54349;52.528;19.760;2022-11-24T06:53:40;8.80;;;5.80;;
67500;SDS011;54349;52.528;19.760;2022-11-24T06:56:11;9.20;;;5.50;;
67500;SDS011;54349;52.528;19.760;2022-11-24T06:58:45;8.30;;;5.50;;
67500;SDS011;54349;52.528;19.760;2022-11-24T07:01:21;9.00;;;5.70;;
67500;SDS011;54349;52.528;19.760;2022-11-24T07:03:53;9.50;;;5.70;;
67500;SDS011;54349;52.528;19.760;2022-11-24T07:06:24;9.80;;;5.40;;
67500;SDS011;54349;52.528;19.760;2022-11-24T07:08:55;9.90;;;5.80;;
67500;SDS011;54349;52.528;19.760;2022-11-24T07:11:23;9.20;;;5.60;;
67500;SDS011;54349;52.528;19.760;2022-11-24T07:13:51;9.40;;;5.80;;
67500;SDS011;54349;52.528;19.760;2022-11-24T07:16:27;10.20;;;5.70;;
67500;SDS011;54349;52.528;19.760;2022-11-24T07:18:57;8.90;;;5.60;;
67500;SDS011;54349;52.528;19.760;2022-11-24T07:21:27;7.80;;;5.50;;
67500;SDS011;54349;52.528;19.760;2022-11-24T07:23:57;8.60;;;5.00;;
67500;SDS011;54349;52.528;19.760;2022-11-24T07:26:25;8.70;;;5.70;;
67500;SDS011;54349;52.528;19.760;2022-11-24T07:28:54;8.50;;;5.70;;
67500;SDS011;54349;52.528;19.760;2022-11-24T07:31:22;10.50;;;6.10;;
67500;SDS011;54349;52.528;19.760;2022-11-24T07:33:54;12.70;;;6.50;;
67500;SDS011;54349;52.528;19.760;2022-11-24T07:36:23;11.60;;;6.60;;
67500;SDS011;54349;52.528;19.760;2022-11-24T07:38:51;12.50;;;7.00;;
67500;SDS011;54349;52.528;19.760;2022-11-24T07:41:20;13.50;;;7.80;;
67500;SDS011;54349;52.528;19.760;2022-11-24T07:43:49;13.70;;;7.50;;
67500;SDS011;54349;52.528;19.760;2022-11-24T07:46:19;13.10;;;7.20;;
67500;SDS011;54349;52.528;19.760;2022-11-24T07:48:47;13.30;;;7.30;;
67500;SDS011;54349;52.528;19.760;2022-11-24T07:51:16;12.10;;;7.30;;
67500;SDS011;54349;52.528;19.760;2022-11-24T07:53:48;12.40;;;7.00;;
67500;SDS011;54349;52.528;19.760;2022-11-24T07:56:17;14.30;;;6.80;;
67500;SDS011;54349;52.528;19.760;2022-11-24T07:58:46;12.80;;;6.90;;
67500;SDS011;54349;52.528;19.760;2022-11-24T08:01:20;12.20;;;7.40;;
67500;SDS011;54349;52.528;19.760;2022-11-24T08:03:49;13.40;;;8.10;;
67500;SDS011;54349;52.528;19.760;2022-11-24T08:06:18;11.20;;;7.00;;
67500;SDS011;54349;52.528;19.760;2022-11-24T08:08:59;15.00;;;7.80;;
67500;SDS011;54349;52.528;19.760;2022-11-24T08:11:28;11.50;;;7.00;;
67500;SDS011;54349;52.528;19.760;2022-11-24T08:14:01;12.20;;;7.60;;
67500;SDS011;54349;52.528;19.760;2022-11-24T08:16:30;13.60;;;7.70;;
67500;SDS011;54349;52.528;19.760;2022-11-24T08:18:59;14.70;;;7.50;;
67500;SDS011;54349;52.528;19.760;2022-11-24T08:21:28;12.00;;;7.20;;
67500;SDS011;54349;52.528;19.760;2022-11-24T08:23:57;13.00;;;7.30;;
67500;SDS011;54349;52.528;19.760;2022-11-24T08:26:27;14.10;;;7.70;;
67500;SDS011;54349;52.528;19.760;2022-11-24T08:28:57;13.10;;;7.90;;
67500;SDS011;54349;52.528;19.760;2022-11-24T08:31:28;12.90;;;7.90;;
67500;SDS011;54349;52.528;19.760;2022-11-24T08:34:04;11.30;;;7.30;;
67500;SDS011;54349;52.528;19.760;2022-11-24T08:36:33;12.80;;;7.50;;
67500;SDS011;54349;52.528;19.760;2022-11-24T08:39:02;11.50;;;6.90;;
67500;SDS011;54349;52.528;19.760;2022-11-24T08:41:32;10.90;;;7.00;;
67500;SDS011;54349;52.528;19.760;2022-11-24T08:44:01;12.20;;;7.70;;
67500;SDS011;54349;52.528;19.760;2022-11-24T08:46:30;10.30;;;6.90;;
67500;SDS011;54349;52.528;19.760;2022-11-24T08:48:59;12.90;;;6.70;;
67500;SDS011;54349;52.528;19.760;2022-11-24T08:51:28;11.20;;;6.70;;
67500;SDS011;54349;52.528;19.760;2022-11-24T08:53:59;12.50;;;7.20;;
67500;SDS011;54349;52.528;19.760;2022-11-24T08:56:31;12.30;;;7.80;;
67500;SDS011;54349;52.528;19.760;2022-11-24T08:59:03;10.50;;;6.90;;
67500;SDS011;54349;52.528;19.760;2022-11-24T09:01:33;10.60;;;6.40;;
67500;SDS011;54349;52.528;19.760;2022-11-24T09:04:02;10.00;;;6.90;;
67500;SDS011;54349;52.528;19.760;2022-11-24T09:06:31;10.60;;;6.90;;
67500;SDS011;54349;52.528;19.760;2022-11-24T09:09:01;11.00;;;6.50;;
67500;SDS011;54349;52.528;19.760;2022-11-24T09:11:33;10.90;;;6.00;;
67500;SDS011;54349;52.528;19.760;2022-11-24T09:14:03;9.40;;;6.50;;
67500;SDS011;54349;52.528;19.760;2022-11-24T09:16:32;12.30;;;7.10;;
67500;SDS011;54349;52.528;19.760;2022-11-24T09:19:03;10.30;;;6.60;;
67500;SDS011;54349;52.528;19.760;2022-11-24T09:21:35;10.60;;;6.80;;
67500;SDS011;54349;52.528;19.760;2022-11-24T09:24:09;11.40;;;6.70;;
67500;SDS011;54349;52.528;19.760;2022-11-24T09:26:38;10.00;;;6.30;;
67500;SDS011;54349;52.528;19.760;2022-11-24T09:29:15;10.40;;;6.60;;
67500;SDS011;54349;52.528;19.760;2022-11-24T09:31:45;10.80;;;6.80;;
67500;SDS011;54349;52.528;19.760;2022-11-24T09:34:15;9.70;;;6.00;;
67500;SDS011;54349;52.528;19.760;2022-11-24T09:36:44;10.80;;;6.10;;
67500;SDS011;54349;52.528;19.760;2022-11-24T09:39:13;9.70;;;6.10;;
67500;SDS011;54349;52.528;19.760;2022-11-24T09:44:57;8.40;;;5.40;;
67500;SDS011;54349;52.528;19.760;2022-11-24T09:48:06;10.70;;;6.50;;
67500;SDS011;54349;52.528;19.760;2022-11-24T09:50:40;11.50;;;6.50;;
67500;SDS011;54349;52.528;19.760;2022-11-24T09:53:34;8.70;;;6.00;;
67500;SDS011;54349;52.528;19.760;2022-11-24T09:56:19;10.90;;;6.00;;
67500;SDS011;54349;52.528;19.760;2022-11-24T09:59:00;10.50;;;6.50;;
67500;SDS011;54349;52.528;19.760;2022-11-24T10:01:41;10.40;;;6.40;;
67500;SDS011;54349;52.528;19.760;2022-11-24T10:04:19;9.20;;;6.30;;
67500;SDS011;54349;52.528;19.760;2022-11-24T10:10:42;11.40;;;6.10;;
67500;SDS011;54349;52.528;19.760;2022-11-24T10:13:41;11.50;;;7.40;;
67500;SDS011;54349;52.528;19.760;2022-11-24T10:19:55;10.60;;;6.60;;
67500;SDS011;54349;52.528;19.760;2022-11-24T10:25:40;9.30;;;5.90;;
67500;SDS011;54349;52.528;19.760;2022-11-24T10:28:18;10.10;;;6.90;;
67500;SDS011;54349;52.528;19.760;2022-11-24T10:30:48;9.60;;;6.10;;
67500;SDS011;54349;52.528;19.760;2022-11-24T10:33:20;9.90;;;5.70;;
67500;SDS011;54349;52.528;19.760;2022-11-24T10:36:05;8.80;;;5.70;;
67500;SDS011;54349;52.528;19.760;2022-11-24T10:38:50;9.00;;;5.60;;
67500;SDS011;54349;52.528;19.760;2022-11-24T10:41:40;9.10;;;6.10;;
67500;SDS011;54349;52.528;19.760;2022-11-24T10:44:26;8.50;;;5.30;;
67500;SDS011;54349;52.528;19.760;2022-11-24T10:46:56;9.20;;;5.90;;
67500;SDS011;54349;52.528;19.760;2022-11-24T10:49:29;8.80;;;5.60;;
67500;SDS011;54349;52.528;19.760;2022-11-24T10:52:15;9.70;;;5.50;;
67500;SDS011;54349;52.528;19.760;2022-11-24T10:54:56;7.60;;;5.30;;
67500;SDS011;54349;52.528;19.760;2022-11-24T10:57:35;8.30;;;5.30;;
67500;SDS011;54349;52.528;19.760;2022-11-24T11:02:48;9.00;;;5.40;;
67500;SDS011;54349;52.528;19.760;2022-11-24T11:05:40;7.40;;;4.90;;
67500;SDS011;54349;52.528;19.760;2022-11-24T11:08:17;8.20;;;5.10;;
67500;SDS011;54349;52.528;19.760;2022-11-24T11:13:59;7.20;;;4.40;;
67500;SDS011;54349;52.528;19.760;2022-11-24T11:16:35;8.00;;;5.00;;
67500;SDS011;54349;52.528;19.760;2022-11-24T11:19:40;6.90;;;4.40;;
67500;SDS011;54349;52.528;19.760;2022-11-24T11:22:26;8.20;;;5.10;;
67500;SDS011;54349;52.528;19.760;2022-11-24T11:27:30;10.30;;;4.90;;
67500;SDS011;54349;52.528;19.760;2022-11-24T11:30:21;7.70;;;4.60;;
67500;SDS011;54349;52.528;19.760;2022-11-24T11:33:21;8.40;;;4.90;;
67500;SDS011;54349;52.528;19.760;2022-11-24T11:36:12;7.30;;;4.40;;
67500;SDS011;54349;52.528;19.760;2022-11-24T11:38:43;6.60;;;4.30;;
67500;SDS011;54349;52.528;19.760;2022-11-24T11:41:19;7.30;;;4.80;;
67500;SDS011;54349;52.528;19.760;2022-11-24T11:47:00;7.60;;;4.60;;
67500;SDS011;54349;52.528;19.760;2022-11-24T11:49:38;7.20;;;4.30;;
67500;SDS011;54349;52.528;19.760;2022-11-24T11:52:21;7.00;;;4.60;;
67500;SDS011;54349;52.528;19.760;2022-11-24T12:00:19;7.30;;;4.70;;
67500;SDS011;54349;52.528;19.760;2022-11-24T12:03:31;7.40;;;4.30;;
67500;SDS011;54349;52.528;19.760;2022-11-24T12:47:20;6.40;;;4.40;;
67500;SDS011;54349;52.528;19.760;2022-11-24T12:50:14;6.30;;;4.10;;
67500;SDS011;54349;52.528;19.760;2022-11-24T12:53:14;8.40;;;4.50;;
67500;SDS011;54349;52.528;19.760;2022-11-24T12:55:48;6.80;;;4.50;;
67500;SDS011;54349;52.528;19.760;2022-11-24T13:01:12;6.30;;;4.40;;
67500;SDS011;54349;52.528;19.760;2022-11-24T13:06:53;6.10;;;4.10;;
67500;SDS011;54349;52.528;19.760;2022-11-24T13:09:26;7.80;;;4.90;;
67500;SDS011;54349;52.528;19.760;2022-11-24T13:14:44;7.20;;;4.20;;
67500;SDS011;54349;52.528;19.760;2022-11-24T13:20:29;10.40;;;4.50;;
67500;SDS011;54349;52.528;19.760;2022-11-24T13:23:01;7.30;;;4.30;;
67500;SDS011;54349;52.528;19.760;2022-11-24T13:25:33;7.20;;;4.50;;
67500;SDS011;54349;52.528;19.760;2022-11-24T13:28:03;6.20;;;4.10;;
67500;SDS011;54349;52.528;19.760;2022-11-24T13:38:52;6.90;;;4.50;;
67500;SDS011;54349;52.528;19.760;2022-11-24T13:47:04;7.00;;;4.70;;
67500;SDS011;54349;52.528;19.760;2022-11-24T13:49:54;6.80;;;4.20;;
67500;SDS011;54349;52.528;19.760;2022-11-24T13:55:21;6.60;;;4.30;;
67500;SDS011;54349;52.528;19.760;2022-11-24T13:58:05;6.60;;;4.60;;
67500;SDS011;54349;52.528;19.760;2022-11-24T14:01:05;6.60;;;4.40;;
67500;SDS011;54349;52.528;19.760;2022-11-24T14:07:04;7.50;;;4.60;;
67500;SDS011;54349;52.528;19.760;2022-11-24T14:12:24;7.20;;;4.40;;
67500;SDS011;54349;52.528;19.760;2022-11-24T14:15:32;6.50;;;4.30;;
67500;SDS011;54349;52.528;19.760;2022-11-24T14:18:15;6.90;;;4.60;;
67500;SDS011;54349;52.528;19.760;2022-11-24T14:20:47;8.30;;;4.50;;
67500;SDS011;54349;52.528;19.760;2022-11-24T14:23:16;6.30;;;4.50;;
67500;SDS011;54349;52.528;19.760;2022-11-24T14:25:49;7.20;;;4.50;;
67500;SDS011;54349;52.528;19.760;2022-11-24T14:28:23;7.00;;;4.70;;
67500;SDS011;54349;52.528;19.760;2022-11-24T14:31:19;7.40;;;4.60;;
67500;SDS011;54349;52.528;19.760;2022-11-24T14:34:11;8.40;;;4.60;;
67500;SDS011;54349;52.528;19.760;2022-11-24T14:36:43;7.40;;;4.60;;
67500;SDS011;54349;52.528;19.760;2022-11-24T14:39:16;7.70;;;4.90;;
67500;SDS011;54349;52.528;19.760;2022-11-24T14:45:13;6.90;;;4.60;;
67500;SDS011;54349;52.528;19.760;2022-11-24T14:47:31;7.50;;;4.60;;
67500;SDS011;54349;52.528;19.760;2022-11-24T14:50:10;7.10;;;4.80;;
67500;SDS011;54349;52.528;19.760;2022-11-24T14:52:53;6.80;;;4.50;;
67500;SDS011;54349;52.528;19.760;2022-11-24T14:55:29;7.80;;;4.60;;
67500;SDS011;54349;52.528;19.760;2022-11-24T14:58:00;6.90;;;4.60;;
67500;SDS011;54349;52.528;19.760;2022-11-24T15:00:31;8.40;;;5.30;;
67500;SDS011;54349;52.528;19.760;2022-11-24T15:05:53;7.70;;;5.00;;
67500;SDS011;54349;52.528;19.760;2022-11-24T15:08:37;7.40;;;5.20;;
67500;SDS011;54349;52.528;19.760;2022-11-24T15:11:13;9.40;;;6.10;;
67500;SDS011;54349;52.528;19.760;2022-11-24T15:13:52;11.90;;;6.30;;
67500;SDS011;54349;52.528;19.760;2022-11-24T15:16:24;9.90;;;6.50;;
67500;SDS011;54349;52.528;19.760;2022-11-24T15:18:59;9.90;;;6.20;;
67500;SDS011;54349;52.528;19.760;2022-11-24T15:21:34;9.60;;;6.50;;
67500;SDS011;54349;52.528;19.760;2022-11-24T15:24:18;11.20;;;7.10;;
67500;SDS011;54349;52.528;19.760;2022-11-24T15:26:47;9.70;;;6.50;;
67500;SDS011;54349;52.528;19.760;2022-11-24T15:29:16;9.30;;;6.30;;
67500;SDS011;54349;52.528;19.760;2022-11-24T15:31:45;10.50;;;6.60;;
67500;SDS011;54349;52.528;19.760;2022-11-24T15:34:20;9.80;;;6.70;;
67500;SDS011;54349;52.528;19.760;2022-11-24T15:36:49;10.90;;;7.30;;
67500;SDS011;54349;52.528;19.760;2022-11-24T15:39:19;9.50;;;6.40;;
67500;SDS011;54349;52.528;19.760;2022-11-24T15:41:47;9.60;;;6.40;;
67500;SDS011;54349;52.528;19.760;2022-11-24T15:44:17;10.70;;;6.50;;
67500;SDS011;54349;52.528;19.760;2022-11-24T15:46:49;10.10;;;6.80;;
67500;SDS011;54349;52.528;19.760;2022-11-24T15:49:20;10.70;;;6.80;;
67500;SDS011;54349;52.528;19.760;2022-11-24T15:51:51;9.50;;;6.20;;
67500;SDS011;54349;52.528;19.760;2022-11-24T15:54:21;9.90;;;6.40;;
67500;SDS011;54349;52.528;19.760;2022-11-24T15:56:51;10.20;;;6.90;;
67500;SDS011;54349;52.528;19.760;2022-11-24T15:59:22;9.50;;;6.40;;
67500;SDS011;54349;52.528;19.760;2022-11-24T16:01:51;9.30;;;6.30;;
67500;SDS011;54349;52.528;19.760;2022-11-24T16:04:21;9.30;;;6.50;;
67500;SDS011;54349;52.528;19.760;2022-11-24T16:06:49;10.10;;;6.50;;
67500;SDS011;54349;52.528;19.760;2022-11-24T16:09:18;8.90;;;6.20;;
67500;SDS011;54349;52.528;19.760;2022-11-24T16:11:46;9.40;;;6.20;;
67500;SDS011;54349;52.528;19.760;2022-11-24T16:14:16;9.50;;;6.20;;
67500;SDS011;54349;52.528;19.760;2022-11-24T16:16:46;9.60;;;6.50;;
67500;SDS011;54349;52.528;19.760;2022-11-24T16:19:16;9.20;;;6.50;;
67500;SDS011;54349;52.528;19.760;2022-11-24T16:21:48;9.90;;;7.10;;
67500;SDS011;54349;52.528;19.760;2022-11-24T16:24:17;9.50;;;6.60;;
67500;SDS011;54349;52.528;19.760;2022-11-24T16:26:46;9.40;;;6.50;;
67500;SDS011;54349;52.528;19.760;2022-11-24T16:29:14;11.40;;;7.40;;
67500;SDS011;54349;52.528;19.760;2022-11-24T16:31:44;11.90;;;7.30;;
67500;SDS011;54349;52.528;19.760;2022-11-24T16:34:14;10.10;;;7.10;;
67500;SDS011;54349;52.528;19.760;2022-11-24T16:36:43;10.50;;;7.00;;
67500;SDS011;54349;52.528;19.760;2022-11-24T16:39:13;10.60;;;7.20;;
67500;SDS011;54349;52.528;19.760;2022-11-24T16:41:41;11.20;;;7.80;;
67500;SDS011;54349;52.528;19.760;2022-11-24T16:44:09;10.90;;;7.90;;
67500;SDS011;54349;52.528;19.760;2022-11-24T16:46:38;10.80;;;7.50;;
67500;SDS011;54349;52.528;19.760;2022-11-24T16:49:07;11.90;;;8.10;;
67500;SDS011;54349;52.528;19.760;2022-11-24T16:51:37;10.70;;;7.50;;
67500;SDS011;54349;52.528;19.760;2022-11-24T16:54:05;11.00;;;7.80;;
67500;SDS011;54349;52.528;19.760;2022-11-24T16:56:33;11.20;;;7.70;;
67500;SDS011;54349;52.528;19.760;2022-11-24T16:59:03;12.20;;;7.60;;